createdAt,value
2018-03-14T00:00:31.940Z,33.5
2018-03-14T00:01:21.389Z,34.3
2018-03-14T00:02:11.353Z,34.5
2018-03-14T00:03:01.437Z,34.1
2018-03-14T00:03:53.737Z,33.8
2018-03-14T00:04:42.314Z,33.6
2018-03-14T00:05:32.678Z,33.4
2018-03-14T00:06:21.840Z,33.4
2018-03-14T00:07:14.679Z,33.3
2018-03-14T00:08:01.552Z,33.1
2018-03-14T00:08:52.647Z,33
2018-03-14T00:09:41.979Z,32.9
2018-03-14T00:10:31.864Z,32.8
2018-03-14T00:11:21.101Z,32.6
2018-03-14T00:12:12.453Z,32.5
2018-03-14T00:13:05.314Z,32.4
2018-03-14T00:13:52.744Z,32.2
2018-03-14T00:14:42.630Z,32.1
2018-03-14T00:15:32.418Z,31.9
2018-03-14T00:16:23.848Z,31.8
2018-03-14T00:17:12.308Z,31.7
2018-03-14T00:18:02.350Z,31.6
2018-03-14T00:18:52.112Z,31.4
2018-03-14T00:19:43.209Z,31.3
2018-03-14T00:20:33.463Z,31.1
2018-03-14T00:21:22.855Z,30.7
2018-03-14T00:22:14.225Z,31.1
2018-03-14T00:23:03.867Z,31.8
2018-03-14T00:23:53.325Z,32.3
2018-03-14T00:24:42.865Z,33
2018-03-14T00:25:36.199Z,33.7
2018-03-14T00:26:22.713Z,34.6
2018-03-14T00:27:14.475Z,34.4
2018-03-14T00:28:03.712Z,34.1
2018-03-14T00:28:53.685Z,33.8
2018-03-14T00:29:43.730Z,33.6
2018-03-14T00:30:34.238Z,33.4
2018-03-14T00:31:22.602Z,33.3
2018-03-14T00:32:14.848Z,33.2
2018-03-14T00:33:03.797Z,33.1
2018-03-14T00:33:54.646Z,33
2018-03-14T00:34:46.572Z,32.9
2018-03-14T00:35:34.214Z,32.7
2018-03-14T00:36:24.975Z,32.6
2018-03-14T00:37:13.262Z,32.4
2018-03-14T00:38:04.147Z,32.4
2018-03-14T00:38:54.160Z,32.2
2018-03-14T00:39:44.475Z,32.1
2018-03-14T00:40:36.626Z,31.9
2018-03-14T00:41:25.822Z,31.8
2018-03-14T00:42:15.281Z,31.6
2018-03-14T00:43:05.043Z,31.6
2018-03-14T00:43:59.654Z,31.4
2018-03-14T00:44:46.049Z,31.3
2018-03-14T00:45:35.496Z,31.1
2018-03-14T00:46:25.184Z,30.8
2018-03-14T00:47:17.183Z,31.3
2018-03-14T00:48:06.222Z,31.9
2018-03-14T00:48:56.564Z,32.5
2018-03-14T00:49:47.604Z,33.2
2018-03-14T00:50:36.360Z,33.9
2018-03-14T00:51:27.055Z,34.6
2018-03-14T00:52:17.361Z,34.3
2018-03-14T00:53:11.406Z,33.9
2018-03-14T00:53:57.516Z,33.7
2018-03-14T00:54:47.040Z,33.5
2018-03-14T00:55:37.292Z,33.4
2018-03-14T00:56:27.107Z,33.3
2018-03-14T00:57:17.456Z,33.1
2018-03-14T00:58:05.881Z,33
2018-03-14T00:58:56.165Z,32.9
2018-03-14T00:59:46.815Z,32.8
2018-03-14T01:00:35.884Z,32.6
2018-03-14T01:01:27.121Z,32.6
2018-03-14T01:02:18.418Z,32.4
2018-03-14T01:03:07.060Z,32.3
2018-03-14T01:03:57.603Z,32.1
2018-03-14T01:04:45.345Z,32
2018-03-14T01:05:36.348Z,31.9
2018-03-14T01:06:27.098Z,31.8
2018-03-14T01:07:16.488Z,31.6
2018-03-14T01:08:05.890Z,31.5
2018-03-14T01:08:56.357Z,31.4
2018-03-14T01:09:46.240Z,31.3
2018-03-14T01:10:37.352Z,30.9
2018-03-14T01:11:26.737Z,30.8
2018-03-14T01:12:16.129Z,31.4
2018-03-14T01:13:06.159Z,32
2018-03-14T01:13:56.704Z,32.6
2018-03-14T01:14:46.481Z,33.3
2018-03-14T01:15:37.177Z,34.1
2018-03-14T01:16:27.815Z,34.8
2018-03-14T01:17:17.694Z,34.3
2018-03-14T01:18:05.768Z,33.9
2018-03-14T01:18:57.178Z,33.8
2018-03-14T01:19:47.309Z,33.6
2018-03-14T01:20:36.696Z,33.4
2018-03-14T01:21:27.820Z,33.3
2018-03-14T01:22:17.222Z,33.3
2018-03-14T01:23:07.505Z,33.1
2018-03-14T01:23:57.834Z,33
2018-03-14T01:24:46.292Z,32.8
2018-03-14T01:25:37.517Z,32.7
2018-03-14T01:26:28.850Z,32.6
2018-03-14T01:27:17.910Z,32.4
2018-03-14T01:28:07.734Z,32.3
2018-03-14T01:28:57.376Z,32.1
2018-03-14T01:29:49.353Z,32
2018-03-14T01:30:37.929Z,31.8
2018-03-14T01:31:29.048Z,31.7
2018-03-14T01:32:19.188Z,31.6
2018-03-14T01:33:08.326Z,31.4
2018-03-14T01:33:58.535Z,31.3
2018-03-14T01:34:48.096Z,31.2
2018-03-14T01:35:40.786Z,31
2018-03-14T01:36:27.644Z,30.8
2018-03-14T01:37:17.378Z,31.3
2018-03-14T01:38:08.788Z,31.9
2018-03-14T01:38:59.298Z,32.6
2018-03-14T01:39:48.609Z,33.3
2018-03-14T01:40:38.947Z,34
2018-03-14T01:41:28.710Z,34.8
2018-03-14T01:42:18.938Z,34.4
2018-03-14T01:43:08.395Z,34
2018-03-14T01:43:58.911Z,33.8
2018-03-14T01:44:50.037Z,33.6
2018-03-14T01:45:39.202Z,33.5
2018-03-14T01:46:29.971Z,33.4
2018-03-14T01:47:19.650Z,33.3
2018-03-14T01:48:13.072Z,33.1
2018-03-14T01:48:59.252Z,33
2018-03-14T01:49:50.127Z,32.9
2018-03-14T01:50:39.445Z,32.8
2018-03-14T01:51:29.603Z,32.6
2018-03-14T01:52:19.520Z,32.5
2018-03-14T01:53:09.482Z,32.4
2018-03-14T01:54:01.098Z,32.3
2018-03-14T01:54:49.529Z,32.1
2018-03-14T01:55:39.565Z,31.9
2018-03-14T01:56:29.979Z,31.9
2018-03-14T01:57:19.538Z,31.7
2018-03-14T01:58:10.408Z,31.6
2018-03-14T01:59:00.940Z,31.4
2018-03-14T01:59:50.375Z,31.3
2018-03-14T02:00:40.987Z,31.1
2018-03-14T02:01:30.252Z,30.9
2018-03-14T02:02:19.724Z,31.4
2018-03-14T02:03:12.480Z,32.1
2018-03-14T02:04:00.580Z,32.7
2018-03-14T02:04:49.764Z,33.4
2018-03-14T02:05:39.918Z,34.1
2018-03-14T02:06:31.286Z,34.6
2018-03-14T02:07:20.861Z,34.1
2018-03-14T02:08:10.693Z,33.8
2018-03-14T02:08:59.571Z,33.6
2018-03-14T02:09:50.685Z,33.5
2018-03-14T02:10:40.866Z,33.4
2018-03-14T02:11:31.238Z,33.3
2018-03-14T02:12:24.086Z,33.1
2018-03-14T02:13:10.621Z,33
2018-03-14T02:14:01.031Z,32.9
2018-03-14T02:14:51.497Z,32.8
2018-03-14T02:15:40.567Z,32.6
2018-03-14T02:16:31.568Z,32.5
2018-03-14T02:17:21.286Z,32.4
2018-03-14T02:18:12.628Z,32.2
2018-03-14T02:19:01.644Z,32.1
2018-03-14T02:19:52.476Z,31.9
2018-03-14T02:20:42.363Z,31.8
2018-03-14T02:21:34.341Z,31.7
2018-03-14T02:22:21.343Z,31.6
2018-03-14T02:23:10.646Z,31.4
2018-03-14T02:24:01.748Z,31.3
2018-03-14T02:24:52.621Z,31.1
2018-03-14T02:25:43.142Z,30.8
2018-03-14T02:26:32.538Z,31.3
2018-03-14T02:27:25.288Z,31.9
2018-03-14T02:28:13.213Z,32.6
2018-03-14T02:29:02.655Z,33.2
2018-03-14T02:29:53.051Z,33.9
2018-03-14T02:30:48.835Z,34.6
2018-03-14T02:31:34.536Z,34.3
2018-03-14T02:32:24.005Z,34
2018-03-14T02:33:14.351Z,33.8
2018-03-14T02:34:04.140Z,33.6
2018-03-14T02:34:54.110Z,33.4
2018-03-14T02:35:44.800Z,33.4
2018-03-14T02:36:37.682Z,33.3
2018-03-14T02:37:24.654Z,33.1
2018-03-14T02:38:14.445Z,33
2018-03-14T02:39:05.077Z,32.9
2018-03-14T02:39:58.864Z,32.8
2018-03-14T02:40:45.231Z,32.6
2018-03-14T02:41:33.847Z,32.5
2018-03-14T02:42:23.380Z,32.3
2018-03-14T02:43:13.403Z,32.2
2018-03-14T02:44:02.784Z,32.1
2018-03-14T02:44:53.092Z,31.9
2018-03-14T02:45:43.262Z,31.8
2018-03-14T02:46:33.245Z,31.7
2018-03-14T02:47:23.690Z,31.6
2018-03-14T02:48:13.969Z,31.4
2018-03-14T02:49:02.844Z,31.3
2018-03-14T02:49:53.161Z,31
2018-03-14T02:50:44.030Z,30.9
2018-03-14T02:51:33.505Z,31.4
2018-03-14T02:52:24.812Z,32.1
2018-03-14T02:53:14.556Z,32.8
2018-03-14T02:54:03.864Z,33.4
2018-03-14T02:54:53.818Z,34.1
2018-03-14T02:55:44.665Z,34.6
2018-03-14T02:56:34.209Z,34.1
2018-03-14T02:57:25.597Z,33.8
2018-03-14T02:58:14.021Z,33.6
2018-03-14T02:59:05.188Z,33.4
2018-03-14T02:59:54.864Z,33.3
2018-03-14T03:00:45.334Z,33.2
2018-03-14T03:01:33.893Z,33.1
2018-03-14T03:02:23.874Z,33
2018-03-14T03:03:13.947Z,32.9
2018-03-14T03:04:04.769Z,32.8
2018-03-14T03:04:55.315Z,32.6
2018-03-14T03:05:44.623Z,32.5
2018-03-14T03:06:34.791Z,32.3
2018-03-14T03:07:25.171Z,32.2
2018-03-14T03:08:14.589Z,32.1
2018-03-14T03:09:05.306Z,31.9
2018-03-14T03:09:55.163Z,31.8
2018-03-14T03:10:45.173Z,31.7
2018-03-14T03:11:35.036Z,31.6
2018-03-14T03:12:25.288Z,31.4
2018-03-14T03:13:15.413Z,31.3
2018-03-14T03:14:05.935Z,31.1
2018-03-14T03:14:55.324Z,30.7
2018-03-14T03:15:45.638Z,31.2
2018-03-14T03:16:35.764Z,31.8
2018-03-14T03:17:26.698Z,32.4
2018-03-14T03:18:15.612Z,33.1
2018-03-14T03:19:05.733Z,33.7
2018-03-14T03:19:56.688Z,34.4
2018-03-14T03:20:47.362Z,34.6
2018-03-14T03:21:36.807Z,34.2
2018-03-14T03:22:25.899Z,33.9
2018-03-14T03:23:16.403Z,33.8
2018-03-14T03:24:06.506Z,33.6
2018-03-14T03:24:56.509Z,33.4
2018-03-14T03:25:46.877Z,33.3
2018-03-14T03:26:36.004Z,33.2
2018-03-14T03:27:26.172Z,33.1
2018-03-14T03:28:17.163Z,32.9
2018-03-14T03:29:06.007Z,32.8
2018-03-14T03:29:57.125Z,32.7
2018-03-14T03:30:47.337Z,32.6
2018-03-14T03:31:37.742Z,32.4
2018-03-14T03:32:27.283Z,32.3
2018-03-14T03:33:16.888Z,32.1
2018-03-14T03:34:07.319Z,32
2018-03-14T03:34:56.489Z,31.9
2018-03-14T03:35:47.354Z,31.8
2018-03-14T03:36:37.341Z,31.6
2018-03-14T03:37:27.148Z,31.5
2018-03-14T03:38:17.206Z,31.3
2018-03-14T03:39:07.271Z,31.3
2018-03-14T03:39:57.341Z,30.8
2018-03-14T03:40:47.694Z,31
2018-03-14T03:41:38.510Z,31.6
2018-03-14T03:42:28.116Z,32.2
2018-03-14T03:43:17.890Z,32.9
2018-03-14T03:44:08.126Z,33.5
2018-03-14T03:44:57.250Z,34.3
2018-03-14T03:45:47.460Z,34.6
2018-03-14T03:46:37.533Z,34.1
2018-03-14T03:47:27.413Z,33.9
2018-03-14T03:48:17.548Z,33.7
2018-03-14T03:49:07.883Z,33.5
2018-03-14T03:49:58.978Z,33.4
2018-03-14T03:50:48.791Z,33.3
2018-03-14T03:51:39.695Z,33.1
2018-03-14T03:52:28.050Z,33.1
2018-03-14T03:53:17.147Z,32.9
2018-03-14T03:54:08.372Z,32.8
2018-03-14T03:54:59.513Z,32.6
2018-03-14T03:55:48.490Z,32.5
2018-03-14T03:56:39.171Z,32.4
2018-03-14T03:57:28.313Z,32.3
2018-03-14T03:58:19.228Z,32.1
2018-03-14T03:59:09.045Z,31.9
2018-03-14T03:59:59.018Z,31.8
2018-03-14T04:00:49.848Z,31.7
2018-03-14T04:01:38.238Z,31.6
2018-03-14T04:02:28.697Z,31.4
2018-03-14T04:03:19.592Z,31.3
2018-03-14T04:04:09.666Z,31.2
2018-03-14T04:04:59.250Z,30.8
2018-03-14T04:05:49.774Z,30.9
2018-03-14T04:06:39.782Z,31.5
2018-03-14T04:07:30.197Z,32.2
2018-03-14T04:08:19.801Z,32.8
2018-03-14T04:09:10.197Z,33.4
2018-03-14T04:10:00.589Z,34.2
2018-03-14T04:10:49.562Z,34.8
2018-03-14T04:11:39.594Z,34.3
2018-03-14T04:12:29.545Z,34.1
2018-03-14T04:13:19.577Z,33.8
2018-03-14T04:14:10.409Z,33.6
2018-03-14T04:14:59.431Z,33.5
2018-03-14T04:15:50.346Z,33.4
2018-03-14T04:16:40.901Z,33.3
2018-03-14T04:17:29.767Z,33.2
2018-03-14T04:18:21.719Z,33.1
2018-03-14T04:19:11.559Z,32.9
2018-03-14T04:20:01.864Z,32.8
2018-03-14T04:20:51.616Z,32.6
2018-03-14T04:21:41.653Z,32.5
2018-03-14T04:22:31.751Z,32.4
2018-03-14T04:23:22.306Z,32.3
2018-03-14T04:24:12.398Z,32.1
2018-03-14T04:25:01.943Z,31.9
2018-03-14T04:25:52.046Z,31.9
2018-03-14T04:26:41.710Z,31.7
2018-03-14T04:27:32.356Z,31.6
2018-03-14T04:28:22.660Z,31.4
2018-03-14T04:29:12.200Z,31.3
2018-03-14T04:30:02.526Z,31.1
2018-03-14T04:30:51.733Z,30.8
2018-03-14T04:31:41.751Z,31.3
2018-03-14T04:32:32.168Z,31.9
2018-03-14T04:33:22.517Z,32.5
2018-03-14T04:34:12.818Z,33.2
2018-03-14T04:35:02.914Z,33.9
2018-03-14T04:35:52.403Z,34.6
2018-03-14T04:36:43.033Z,34.3
2018-03-14T04:37:32.864Z,33.9
2018-03-14T04:38:22.371Z,33.7
2018-03-14T04:39:12.918Z,33.6
2018-03-14T04:40:02.144Z,33.4
2018-03-14T04:40:52.801Z,33.3
2018-03-14T04:41:42.870Z,33.2
2018-03-14T04:42:33.410Z,33.1
2018-03-14T04:43:23.757Z,32.9
2018-03-14T04:44:12.960Z,32.8
2018-03-14T04:45:03.605Z,32.6
2018-03-14T04:45:53.690Z,32.5
2018-03-14T04:46:43.725Z,32.4
2018-03-14T04:47:34.102Z,32.3
2018-03-14T04:48:23.806Z,32.1
2018-03-14T04:49:13.364Z,32
2018-03-14T04:50:02.440Z,31.9
2018-03-14T04:50:52.232Z,31.8
2018-03-14T04:51:42.946Z,31.6
2018-03-14T04:52:33.697Z,31.5
2018-03-14T04:53:22.094Z,31.3
2018-03-14T04:54:13.049Z,31.3
2018-03-14T04:55:03.232Z,30.9
2018-03-14T04:55:53.199Z,30.9
2018-03-14T04:56:42.782Z,31.4
2018-03-14T04:57:33.014Z,32
2018-03-14T04:58:23.419Z,32.6
2018-03-14T04:59:13.151Z,33.3
2018-03-14T05:00:03.302Z,33.9
2018-03-14T05:00:53.695Z,34.7
2018-03-14T05:01:42.991Z,34.3
2018-03-14T05:02:33.342Z,33.9
2018-03-14T05:03:22.924Z,33.8
2018-03-14T05:04:13.979Z,33.6
2018-03-14T05:05:03.699Z,33.4
2018-03-14T05:05:53.874Z,33.3
2018-03-14T05:06:43.417Z,33.2
2018-03-14T05:07:33.451Z,33
2018-03-14T05:08:23.697Z,32.9
2018-03-14T05:09:13.974Z,32.8
2018-03-14T05:10:03.815Z,32.7
2018-03-14T05:10:54.699Z,32.5
2018-03-14T05:11:44.561Z,32.4
2018-03-14T05:12:34.284Z,32.2
2018-03-14T05:13:24.446Z,32.1
2018-03-14T05:14:15.094Z,31.9
2018-03-14T05:15:18.966Z,31.8
2018-03-14T05:15:54.838Z,31.6
2018-03-14T05:16:44.621Z,31.5
2018-03-14T05:17:34.068Z,31.4
2018-03-14T05:18:23.511Z,31.3
2018-03-14T05:19:15.059Z,31.1
2018-03-14T05:20:03.971Z,30.9
2018-03-14T05:20:54.415Z,30.5
2018-03-14T05:21:44.955Z,30.9
2018-03-14T05:22:34.488Z,31.6
2018-03-14T05:23:24.789Z,32.2
2018-03-14T05:24:14.260Z,32.8
2018-03-14T05:25:04.750Z,33.4
2018-03-14T05:25:55.263Z,34.2
2018-03-14T05:26:45.393Z,34.2
2018-03-14T05:27:34.004Z,33.8
2018-03-14T05:28:24.836Z,33.6
2018-03-14T05:29:15.296Z,33.3
2018-03-14T05:30:06.671Z,33.2
2018-03-14T05:30:55.671Z,33.1
2018-03-14T05:31:45.973Z,32.9
2018-03-14T05:32:34.752Z,32.8
2018-03-14T05:33:25.564Z,32.8
2018-03-14T05:34:14.859Z,32.6
2018-03-14T05:35:05.018Z,32.4
2018-03-14T05:35:55.071Z,32.3
2018-03-14T05:36:45.678Z,32.2
2018-03-14T05:37:36.365Z,32.1
2018-03-14T05:38:26.149Z,31.9
2018-03-14T05:39:15.826Z,31.8
2018-03-14T05:40:05.458Z,31.6
2018-03-14T05:40:56.840Z,31.5
2018-03-14T05:41:47.060Z,31.4
2018-03-14T05:42:36.515Z,31.2
2018-03-14T05:43:25.321Z,31.1
2018-03-14T05:44:16.390Z,30.9
2018-03-14T05:45:06.913Z,30.8
2018-03-14T05:45:56.573Z,30.4
2018-03-14T05:46:46.835Z,30.9
2018-03-14T05:47:35.770Z,31.6
2018-03-14T05:48:26.742Z,32.2
2018-03-14T05:49:16.901Z,32.9
2018-03-14T05:50:06.429Z,33.6
2018-03-14T05:50:57.012Z,34.3
2018-03-14T05:51:47.680Z,34.4
2018-03-14T05:52:35.854Z,33.9
2018-03-14T05:53:27.279Z,33.8
2018-03-14T05:54:17.770Z,33.6
2018-03-14T05:55:06.934Z,33.4
2018-03-14T05:55:57.274Z,33.3
2018-03-14T05:56:47.242Z,33.1
2018-03-14T05:57:37.581Z,33
2018-03-14T05:58:28.339Z,32.9
2018-03-14T05:59:18.009Z,32.8
2018-03-14T06:00:07.762Z,32.6
2018-03-14T06:00:57.149Z,32.4
2018-03-14T06:01:47.690Z,32.3
2018-03-14T06:02:38.762Z,32.2
2018-03-14T06:03:28.118Z,32.1
2018-03-14T06:04:18.530Z,31.9
2018-03-14T06:05:07.880Z,31.8
2018-03-14T06:05:57.125Z,31.6
2018-03-14T06:06:47.778Z,31.5
2018-03-14T06:07:38.566Z,31.4
2018-03-14T06:08:29.294Z,31.2
2018-03-14T06:09:18.064Z,31.1
2018-03-14T06:10:07.746Z,30.9
2018-03-14T06:10:57.639Z,30.4
2018-03-14T06:11:48.324Z,30.8
2018-03-14T06:12:38.494Z,31.4
2018-03-14T06:13:27.949Z,32.1
2018-03-14T06:14:18.572Z,32.8
2018-03-14T06:15:07.393Z,33.4
2018-03-14T06:15:57.624Z,34.2
2018-03-14T06:16:49.326Z,34.4
2018-03-14T06:17:39.526Z,33.9
2018-03-14T06:18:28.468Z,33.7
2018-03-14T06:19:18.726Z,33.5
2018-03-14T06:20:09.416Z,33.3
2018-03-14T06:20:58.861Z,33.3
2018-03-14T06:21:49.139Z,33.1
2018-03-14T06:22:37.929Z,33
2018-03-14T06:23:29.128Z,32.9
2018-03-14T06:24:19.286Z,32.8
2018-03-14T06:25:08.999Z,32.6
2018-03-14T06:25:59.228Z,32.4
2018-03-14T06:26:49.990Z,32.3
2018-03-14T06:27:40.713Z,32.2
2018-03-14T06:28:30.211Z,32.1
2018-03-14T06:29:19.663Z,31.9
2018-03-14T06:30:09.706Z,31.8
2018-03-14T06:31:00.448Z,31.6
2018-03-14T06:31:49.660Z,31.4
2018-03-14T06:32:40.018Z,31.3
2018-03-14T06:33:29.492Z,31.2
2018-03-14T06:34:19.136Z,31
2018-03-14T06:35:09.693Z,30.9
2018-03-14T06:36:00.038Z,30.4
2018-03-14T06:36:50.055Z,30.8
2018-03-14T06:37:39.870Z,31.4
2018-03-14T06:38:29.797Z,32.1
2018-03-14T06:39:21.157Z,32.7
2018-03-14T06:40:10.050Z,33.4
2018-03-14T06:41:01.363Z,34.1
2018-03-14T06:41:50.543Z,34.3
2018-03-14T06:42:40.004Z,33.9
2018-03-14T06:43:30.292Z,33.6
2018-03-14T06:44:20.288Z,33.4
2018-03-14T06:45:10.895Z,33.3
2018-03-14T06:46:00.812Z,33.1
2018-03-14T06:46:50.047Z,33
2018-03-14T06:47:40.775Z,32.9
2018-03-14T06:48:31.684Z,32.8
2018-03-14T06:49:21.268Z,32.6
2018-03-14T06:50:10.867Z,32.5
2018-03-14T06:51:01.692Z,32.4
2018-03-14T06:51:50.582Z,32.3
2018-03-14T06:52:39.388Z,32.2
2018-03-14T06:53:32.518Z,32.1
2018-03-14T06:54:21.870Z,31.9
2018-03-14T06:55:11.772Z,31.8
2018-03-14T06:56:01.736Z,31.6
2018-03-14T06:56:52.109Z,31.4
2018-03-14T06:57:42.088Z,31.3
2018-03-14T06:58:31.452Z,31.1
2018-03-14T06:59:20.841Z,30.9
2018-03-14T07:00:11.867Z,30.8
2018-03-14T07:01:02.617Z,30.4
2018-03-14T07:01:51.684Z,30.9
2018-03-14T07:02:41.439Z,31.6
2018-03-14T07:03:32.766Z,32.3
2018-03-14T07:04:21.894Z,32.9
2018-03-14T07:05:13.434Z,33.6
2018-03-14T07:06:03.729Z,34.4
2018-03-14T07:06:53.451Z,34.1
2018-03-14T07:07:43.846Z,33.8
2018-03-14T07:08:33.837Z,33.5
2018-03-14T07:09:23.339Z,33.4
2018-03-14T07:10:13.948Z,33.3
2018-03-14T07:11:04.046Z,33.2
2018-03-14T07:11:53.690Z,33.1
2018-03-14T07:12:43.853Z,33
2018-03-14T07:13:33.943Z,32.9
2018-03-14T07:14:23.993Z,32.8
2018-03-14T07:15:14.041Z,32.6
2018-03-14T07:16:04.100Z,32.5
2018-03-14T07:16:54.731Z,32.4
2018-03-14T07:17:43.664Z,32.1
2018-03-14T07:18:34.595Z,32
2018-03-14T07:19:24.085Z,31.8
2018-03-14T07:20:14.681Z,31.7
2018-03-14T07:21:04.294Z,31.5
2018-03-14T07:21:55.090Z,31.4
2018-03-14T07:22:45.158Z,31.2
2018-03-14T07:23:33.536Z,31.1
2018-03-14T07:24:24.437Z,31
2018-03-14T07:25:14.516Z,30.8
2018-03-14T07:26:05.402Z,30.7
2018-03-14T07:26:55.164Z,30.6
2018-03-14T07:27:44.721Z,30.3
2018-03-14T07:28:35.358Z,30.3
2018-03-14T07:29:25.323Z,30.9
2018-03-14T07:30:14.917Z,31.6
2018-03-14T07:31:05.712Z,32.3
2018-03-14T07:31:55.537Z,33
2018-03-14T07:32:45.846Z,33.8
2018-03-14T07:33:35.617Z,34.6
2018-03-14T07:34:25.994Z,34.1
2018-03-14T07:35:15.014Z,33.8
2018-03-14T07:36:05.789Z,33.6
2018-03-14T07:36:56.146Z,33.4
2018-03-14T07:37:45.635Z,33.3
2018-03-14T07:38:36.287Z,33.3
2018-03-14T07:39:25.102Z,33.1
2018-03-14T07:40:15.346Z,33
2018-03-14T07:41:04.894Z,32.9
2018-03-14T07:41:54.933Z,32.8
2018-03-14T07:42:45.617Z,32.6
2018-03-14T07:43:34.462Z,32.4
2018-03-14T07:44:25.594Z,32.3
2018-03-14T07:45:14.255Z,32.2
2018-03-14T07:46:05.219Z,32
2018-03-14T07:46:55.024Z,31.9
2018-03-14T07:47:45.274Z,31.8
2018-03-14T07:48:34.884Z,31.6
2018-03-14T07:49:25.509Z,31.5
2018-03-14T07:50:14.649Z,31.3
2018-03-14T07:51:05.986Z,31.2
2018-03-14T07:51:55.661Z,31.1
2018-03-14T07:52:45.273Z,30.9
2018-03-14T07:53:36.030Z,30.8
2018-03-14T07:54:25.923Z,30.7
2018-03-14T07:55:15.979Z,30.3
2018-03-14T07:56:05.149Z,30.5
2018-03-14T07:56:55.939Z,31.2
2018-03-14T07:57:45.670Z,31.9
2018-03-14T07:58:35.444Z,32.6
2018-03-14T07:59:26.413Z,33.3
2018-03-14T08:00:17.352Z,34.2
2018-03-14T08:01:05.558Z,34.4
2018-03-14T08:01:56.023Z,34
2018-03-14T08:02:46.493Z,33.8
2018-03-14T08:03:36.783Z,33.6
2018-03-14T08:04:26.484Z,33.5
2018-03-14T08:05:16.309Z,33.4
2018-03-14T08:06:07.004Z,33.2
2018-03-14T08:06:56.053Z,33.1
2018-03-14T08:07:46.236Z,32.9
2018-03-14T08:08:35.888Z,32.8
2018-03-14T08:09:26.496Z,32.6
2018-03-14T08:10:16.175Z,32.5
2018-03-14T08:11:06.248Z,32.3
2018-03-14T08:11:56.977Z,32.2
2018-03-14T08:12:47.437Z,32.1
2018-03-14T08:13:41.075Z,31.9
2018-03-14T08:14:27.971Z,31.8
2018-03-14T08:15:18.612Z,31.6
2018-03-14T08:16:08.941Z,31.5
2018-03-14T08:16:58.754Z,31.3
2018-03-14T08:17:48.782Z,31.2
2018-03-14T08:18:38.272Z,31.1
2018-03-14T08:19:28.938Z,30.9
2018-03-14T08:20:19.206Z,30.8
2018-03-14T08:21:09.313Z,30.6
2018-03-14T08:21:59.060Z,30.3
2018-03-14T08:22:48.542Z,30.4
2018-03-14T08:23:39.200Z,31.1
2018-03-14T08:24:28.975Z,31.8
2018-03-14T08:25:19.079Z,32.4
2018-03-14T08:26:09.527Z,33.1
2018-03-14T08:26:59.407Z,33.9
2018-03-14T08:27:49.805Z,34.6
2018-03-14T08:28:39.304Z,34.1
2018-03-14T08:29:29.665Z,33.8
2018-03-14T08:30:18.600Z,33.6
2018-03-14T08:31:09.999Z,33.4
2018-03-14T08:31:59.056Z,33.3
2018-03-14T08:32:49.581Z,33.2
2018-03-14T08:33:40.202Z,33.1
2018-03-14T08:34:29.136Z,32.9
2018-03-14T08:35:19.042Z,32.8
2018-03-14T08:36:10.368Z,32.7
2018-03-14T08:37:00.164Z,32.5
2018-03-14T08:37:50.503Z,32.4
2018-03-14T08:38:39.459Z,32.3
2018-03-14T08:39:29.596Z,32.1
2018-03-14T08:40:20.381Z,31.9
2018-03-14T08:41:09.908Z,31.8
2018-03-14T08:42:00.531Z,31.7
2018-03-14T08:42:50.296Z,31.6
2018-03-14T08:43:40.441Z,31.4
2018-03-14T08:44:30.998Z,31.3
2018-03-14T08:45:19.922Z,31.2
2018-03-14T08:46:11.103Z,31.1
2018-03-14T08:47:01.059Z,30.9
2018-03-14T08:47:50.111Z,30.8
2018-03-14T08:48:40.044Z,30.6
2018-03-14T08:49:31.395Z,30.3
2018-03-14T08:50:21.135Z,30.8
2018-03-14T08:51:10.651Z,31.4
2018-03-14T08:52:00.439Z,32.1
2018-03-14T08:52:51.304Z,32.9
2018-03-14T08:53:41.301Z,33.6
2018-03-14T08:54:31.530Z,34.4
2018-03-14T08:55:21.466Z,34.2
2018-03-14T08:56:11.265Z,33.8
2018-03-14T08:57:00.511Z,33.6
2018-03-14T08:57:51.690Z,33.4
2018-03-14T08:58:40.848Z,33.3
2018-03-14T08:59:31.376Z,33.2
2018-03-14T09:00:21.688Z,33.1
2018-03-14T09:01:11.161Z,32.9
2018-03-14T09:02:01.127Z,32.8
2018-03-14T09:02:51.486Z,32.7
2018-03-14T09:03:40.954Z,32.5
2018-03-14T09:04:31.013Z,32.4
2018-03-14T09:05:21.978Z,32.3
2018-03-14T09:06:11.993Z,32.1
2018-03-14T09:07:02.302Z,31.9
2018-03-14T09:07:52.098Z,31.8
2018-03-14T09:08:41.937Z,31.7
2018-03-14T09:09:32.557Z,31.5
2018-03-14T09:10:21.465Z,31.4
2018-03-14T09:11:12.257Z,31.3
2018-03-14T09:12:02.710Z,31.1
2018-03-14T09:12:52.167Z,31
2018-03-14T09:13:41.470Z,30.9
2018-03-14T09:14:31.037Z,30.8
2018-03-14T09:15:22.247Z,30.5
2018-03-14T09:16:10.217Z,30.4
2018-03-14T09:17:01.168Z,31.1
2018-03-14T09:17:51.922Z,31.8
2018-03-14T09:18:42.155Z,32.5
2018-03-14T09:19:31.149Z,33.3
2018-03-14T09:20:22.005Z,34
2018-03-14T09:21:13.094Z,34.6
2018-03-14T09:22:01.492Z,34.1
2018-03-14T09:22:51.194Z,33.8
2018-03-14T09:23:41.935Z,33.7
2018-03-14T09:24:32.866Z,33.5
2018-03-14T09:25:21.686Z,33.4
2018-03-14T09:26:12.296Z,33.3
2018-03-14T09:27:02.774Z,33.1
2018-03-14T09:27:52.707Z,33
2018-03-14T09:28:43.771Z,32.9
2018-03-14T09:29:33.508Z,32.8
2018-03-14T09:30:22.474Z,32.6
2018-03-14T09:31:11.996Z,32.4
2018-03-14T09:32:02.387Z,32.3
2018-03-14T09:32:51.491Z,32.1
2018-03-14T09:33:42.357Z,32
2018-03-14T09:34:34.159Z,31.9
2018-03-14T09:35:22.404Z,31.8
2018-03-14T09:36:12.768Z,31.6
2018-03-14T09:37:03.228Z,31.5
2018-03-14T09:37:54.051Z,31.4
2018-03-14T09:38:42.337Z,31.3
2018-03-14T09:39:32.574Z,31.1
2018-03-14T09:40:23.285Z,31
2018-03-14T09:41:13.468Z,30.9
2018-03-14T09:42:03.770Z,30.6
2018-03-14T09:42:53.911Z,30.5
2018-03-14T09:43:44.153Z,31.1
2018-03-14T09:44:34.304Z,31.8
2018-03-14T09:45:24.226Z,32.4
2018-03-14T09:46:14.209Z,33.2
2018-03-14T09:47:04.094Z,33.9
2018-03-14T09:47:54.673Z,34.5
2018-03-14T09:48:44.660Z,34.1
2018-03-14T09:49:34.243Z,33.8
2018-03-14T09:50:23.284Z,33.6
2018-03-14T09:51:13.642Z,33.4
2018-03-14T09:52:04.532Z,33.3
2018-03-14T09:52:53.852Z,33.1
2018-03-14T09:53:44.708Z,33.1
2018-03-14T09:54:33.950Z,32.9
2018-03-14T09:55:24.100Z,32.8
2018-03-14T09:56:15.252Z,32.6
2018-03-14T09:57:05.560Z,32.5
2018-03-14T09:57:54.097Z,32.4
2018-03-14T09:58:45.117Z,32.2
2018-03-14T09:59:33.854Z,32.1
2018-03-14T10:00:24.957Z,31.9
2018-03-14T10:01:15.230Z,31.8
2018-03-14T10:02:04.802Z,31.6
2018-03-14T10:02:54.378Z,31.5
2018-03-14T10:03:44.919Z,31.4
2018-03-14T10:04:34.874Z,31.3
2018-03-14T10:05:24.926Z,31.1
2018-03-14T10:06:16.689Z,31
2018-03-14T10:07:04.534Z,30.9
2018-03-14T10:07:55.594Z,30.8
2018-03-14T10:08:45.279Z,30.4
2018-03-14T10:09:35.834Z,30.6
2018-03-14T10:10:25.898Z,31.3
2018-03-14T10:11:15.749Z,32
2018-03-14T10:12:05.524Z,32.8
2018-03-14T10:12:55.401Z,33.5
2018-03-14T10:13:46.309Z,34.4
2018-03-14T10:14:36.672Z,34.3
2018-03-14T10:15:26.096Z,33.9
2018-03-14T10:16:15.205Z,33.8
2018-03-14T10:17:06.091Z,33.6
2018-03-14T10:17:55.765Z,33.4
2018-03-14T10:18:45.726Z,33.3
2018-03-14T10:19:35.860Z,33.1
2018-03-14T10:20:26.096Z,33
2018-03-14T10:21:16.187Z,32.9
2018-03-14T10:22:05.656Z,32.8
2018-03-14T10:22:56.336Z,32.6
2018-03-14T10:23:46.660Z,32.5
2018-03-14T10:24:36.611Z,32.3
2018-03-14T10:25:26.293Z,32.2
2018-03-14T10:26:17.140Z,32.1
2018-03-14T10:27:05.846Z,31.9
2018-03-14T10:27:56.553Z,31.8
2018-03-14T10:28:47.415Z,31.6
2018-03-14T10:29:37.183Z,31.5
2018-03-14T10:30:26.917Z,31.4
2018-03-14T10:31:17.426Z,31.3
2018-03-14T10:32:07.478Z,31.1
2018-03-14T10:32:57.829Z,31
2018-03-14T10:33:46.522Z,30.9
2018-03-14T10:34:36.955Z,30.7
2018-03-14T10:35:27.620Z,30.3
2018-03-14T10:36:17.021Z,30.9
2018-03-14T10:37:08.138Z,31.6
2018-03-14T10:37:57.404Z,32.4
2018-03-14T10:38:47.892Z,33.2
2018-03-14T10:39:37.499Z,34.1
2018-03-14T10:40:26.472Z,34.8
2018-03-14T10:41:18.712Z,34.4
2018-03-14T10:42:07.802Z,34
2018-03-14T10:42:57.841Z,33.8
2018-03-14T10:43:46.934Z,33.6
2018-03-14T10:44:38.581Z,33.5
2018-03-14T10:45:28.647Z,33.4
2018-03-14T10:46:17.389Z,33.3
2018-03-14T10:47:07.486Z,33.1
2018-03-14T10:47:58.679Z,33
2018-03-14T10:48:47.297Z,32.9
2018-03-14T10:49:38.251Z,32.8
2018-03-14T10:50:27.630Z,32.6
2018-03-14T10:51:18.114Z,32.4
2018-03-14T10:52:08.907Z,32.3
2018-03-14T10:52:59.552Z,32.2
2018-03-14T10:53:47.941Z,32.1
2018-03-14T10:54:39.689Z,31.9
2018-03-14T10:55:28.954Z,31.8
2018-03-14T10:56:19.210Z,31.6
2018-03-14T10:57:08.125Z,31.5
2018-03-14T10:57:59.256Z,31.3
2018-03-14T10:58:49.861Z,31.2
2018-03-14T10:59:39.760Z,31.1
2018-03-14T11:00:29.292Z,30.9
2018-03-14T11:01:19.390Z,30.8
2018-03-14T11:02:09.050Z,30.5
2018-03-14T11:02:58.900Z,30.6
2018-03-14T11:03:48.973Z,31.4
2018-03-14T11:04:39.508Z,32.2
2018-03-14T11:05:29.513Z,32.9
2018-03-14T11:06:19.263Z,33.8
2018-03-14T11:07:09.232Z,34.6
2018-03-14T11:08:00.127Z,34.3
2018-03-14T11:08:49.417Z,33.9